Time;durP1;ratioP1;P1;durP2;ratioP2;P2;SDS_P1;SDS_P2;PMS_P1;PMS_P2;Temp;Humidity;BMP_temperature;BMP_pressure;BME280_temperature;BME280_humidity;BME280_pressure;Samples;Min_cycle;Max_cycle;Signal;HPM_P1;HPM_P2
2023/09/19 00:01:11;;;;;;;7.18;1.80;;;;;;;;;;5100495;28;20059;-67
2023/09/19 00:03:37;;;;;;;8.85;1.73;;;;;;;;;;5099895;28;20028;-67
2023/09/19 00:06:10;;;;;;;9.95;1.95;;;;;;;;;;5101846;27;20969;-66
2023/09/19 00:08:36;;;;;;;7.75;1.83;;;;;;;;;;5103784;27;20035;-66
2023/09/19 00:11:03;;;;;;;9.02;1.77;;;;;;;;;;5104416;27;20046;-66
2023/09/19 00:13:30;;;;;;;6.55;1.77;;;;;;;;;;5103326;27;20039;-66
2023/09/19 00:15:58;;;;;;;11.10;1.88;;;;;;;;;;5104607;27;20768;-67
2023/09/19 00:18:28;;;;;;;13.82;2.35;;;;;;;;;;5104128;27;21730;-67
2023/09/19 00:20:57;;;;;;;7.07;1.48;;;;;;;;;;5104359;27;20039;-68
2023/09/19 00:23:24;;;;;;;12.27;2.65;;;;;;;;;;5103536;27;20043;-67
2023/09/19 00:25:50;;;;;;;18.08;1.88;;;;;;;;;;5102165;27;20150;-66
2023/09/19 00:28:18;;;;;;;8.65;2.10;;;;;;;;;;5103987;27;20070;-66
2023/09/19 00:30:44;;;;;;;14.90;2.47;;;;;;;;;;5104347;27;20049;-66
2023/09/19 00:33:15;;;;;;;9.27;2.33;;;;;;;;;;5103364;27;20032;-67
2023/09/19 00:35:47;;;;;;;12.10;2.28;;;;;;;;;;5104825;27;20577;-67
2023/09/19 00:38:15;;;;;;;8.73;2.08;;;;;;;;;;5103861;27;20588;-67
2023/09/19 00:40:44;;;;;;;9.88;2.13;;;;;;;;;;5103484;27;20027;-67
2023/09/19 00:43:10;;;;;;;10.68;2.05;;;;;;;;;;5102796;27;20059;-66
2023/09/19 00:45:38;;;;;;;8.27;1.92;;;;;;;;;;5104013;27;20134;-67
2023/09/19 00:48:06;;;;;;;16.52;2.05;;;;;;;;;;5103404;27;20081;-67
2023/09/19 00:50:33;;;;;;;7.88;1.90;;;;;;;;;;5102980;27;20711;-67
2023/09/19 00:52:59;;;;;;;5.88;1.60;;;;;;;;;;5103468;27;20027;-67
2023/09/19 00:55:26;;;;;;;6.72;1.83;;;;;;;;;;5103058;27;20659;-66
2023/09/19 00:57:52;;;;;;;8.43;1.90;;;;;;;;;;5102437;27;20039;-66
2023/09/19 01:00:19;;;;;;;5.80;1.60;;;;;;;;;;5103132;27;20438;-66
2023/09/19 01:02:45;;;;;;;8.82;2.00;;;;;;;;;;5102440;27;20596;-67
2023/09/19 01:05:12;;;;;;;10.23;2.10;;;;;;;;;;5102628;27;20023;-67
2023/09/19 01:07:41;;;;;;;11.48;1.98;;;;;;;;;;5101979;27;20045;-67
2023/09/19 01:10:09;;;;;;;8.43;1.58;;;;;;;;;;5102604;27;21181;-66
2023/09/19 01:12:51;;;;;;;6.15;1.77;;;;;;;;;;5102321;27;20024;-67
2023/09/19 01:15:36;;;;;;;7.85;1.92;;;;;;;;;;5100678;27;20048;-66
2023/09/19 01:18:12;;;;;;;11.27;2.90;;;;;;;;;;5103042;27;20028;-67
2023/09/19 01:20:47;;;;;;;10.02;2.17;;;;;;;;;;5103375;27;20027;-66
2023/09/19 01:23:16;;;;;;;8.30;1.73;;;;;;;;;;5103077;27;20057;-66
2023/09/19 01:26:00;;;;;;;12.73;2.20;;;;;;;;;;5103791;27;20686;-67
2023/09/19 01:28:47;;;;;;;20.60;2.55;;;;;;;;;;5102252;27;20027;-67
2023/09/19 01:31:14;;;;;;;11.55;2.60;;;;;;;;;;5103047;27;20015;-66
2023/09/19 01:34:04;;;;;;;8.43;2.20;;;;;;;;;;5103269;27;20062;-66
2023/09/19 01:36:35;;;;;;;10.70;2.30;;;;;;;;;;5102344;27;20035;-67
2023/09/19 01:39:05;;;;;;;10.98;1.60;;;;;;;;;;5103385;27;20042;-67
2023/09/19 01:41:44;;;;;;;10.45;1.80;;;;;;;;;;5102644;27;20126;-66
2023/09/19 01:44:13;;;;;;;8.05;2.25;;;;;;;;;;5101678;27;20047;-66
2023/09/19 01:46:41;;;;;;;7.53;1.77;;;;;;;;;;5102611;27;20032;-66
2023/09/19 01:49:16;;;;;;;8.98;2.00;;;;;;;;;;5103009;27;20035;-66
2023/09/19 01:51:46;;;;;;;7.45;2.00;;;;;;;;;;5083481;27;20462;-66
2023/09/19 01:54:13;;;;;;;10.52;1.98;;;;;;;;;;5102604;27;20027;-66
2023/09/19 01:56:44;;;;;;;8.88;2.03;;;;;;;;;;5101701;27;20023;-66
2023/09/19 01:59:12;;;;;;;11.77;2.13;;;;;;;;;;5101955;27;20560;-66
2023/09/19 02:01:38;;;;;;;12.38;2.58;;;;;;;;;;5101440;27;20035;-67
2023/09/19 02:04:05;;;;;;;9.98;2.20;;;;;;;;;;5102390;27;20035;-67
2023/09/19 02:06:31;;;;;;;9.65;1.80;;;;;;;;;;5102454;27;20503;-66
2023/09/19 02:08:57;;;;;;;9.65;1.63;;;;;;;;;;5101379;27;20023;-66
2023/09/19 02:11:23;;;;;;;9.02;1.98;;;;;;;;;;5102158;27;20646;-67
2023/09/19 02:13:54;;;;;;;7.53;1.60;;;;;;;;;;5102547;27;20047;-67
2023/09/19 02:16:20;;;;;;;14.75;2.20;;;;;;;;;;5102156;27;20035;-67
2023/09/19 02:18:49;;;;;;;9.93;1.60;;;;;;;;;;5098060;27;20059;-67
2023/09/19 02:21:16;;;;;;;8.85;2.00;;;;;;;;;;5098158;27;20072;-67
2023/09/19 02:23:43;;;;;;;7.45;1.60;;;;;;;;;;5091925;27;20027;-67
2023/09/19 02:26:10;;;;;;;9.63;2.13;;;;;;;;;;5083395;27;20929;-67
2023/09/19 02:28:37;;;;;;;11.98;2.78;;;;;;;;;;5100666;27;20036;-67
2023/09/19 02:31:07;;;;;;;11.30;2.00;;;;;;;;;;5100511;27;20064;-66
2023/09/19 02:33:33;;;;;;;11.20;2.30;;;;;;;;;;5100429;27;20632;-67
2023/09/19 02:36:00;;;;;;;7.88;1.83;;;;;;;;;;5100430;27;20145;-66
2023/09/19 02:38:26;;;;;;;10.52;1.63;;;;;;;;;;5100211;27;20114;-67
2023/09/19 02:40:55;;;;;;;13.30;2.50;;;;;;;;;;5101530;27;20035;-66
2023/09/19 02:43:21;;;;;;;7.22;1.67;;;;;;;;;;5101609;27;20080;-66
2023/09/19 02:45:49;;;;;;;11.85;1.98;;;;;;;;;;5101146;27;20166;-66
2023/09/19 02:48:15;;;;;;;7.07;1.67;;;;;;;;;;5101369;27;20027;-66
2023/09/19 02:50:42;;;;;;;8.52;1.92;;;;;;;;;;5101187;27;20059;-66
2023/09/19 02:53:10;;;;;;;11.20;2.85;;;;;;;;;;5101231;27;20038;-67
2023/09/19 02:55:38;;;;;;;12.05;2.42;;;;;;;;;;5086485;27;20027;-66
2023/09/19 02:58:07;;;;;;;10.50;1.95;;;;;;;;;;5100529;27;20043;-66
2023/09/19 03:00:35;;;;;;;9.75;2.30;;;;;;;;;;5100406;27;20142;-67
2023/09/19 03:03:02;;;;;;;12.00;2.35;;;;;;;;;;5102071;27;20080;-66
2023/09/19 03:05:30;;;;;;;8.95;1.65;;;;;;;;;;5100454;27;20032;-67
2023/09/19 03:07:56;;;;;;;14.07;2.78;;;;;;;;;;5101392;27;20030;-66
2023/09/19 03:10:24;;;;;;;8.13;1.52;;;;;;;;;;5098875;27;21709;-67
2023/09/19 03:12:50;;;;;;;10.63;1.70;;;;;;;;;;5101288;27;20030;-67
2023/09/19 03:15:18;;;;;;;8.73;1.83;;;;;;;;;;5101206;27;20050;-66
2023/09/19 03:17:47;;;;;;;7.80;1.70;;;;;;;;;;5101464;27;20027;-66
2023/09/19 03:20:17;;;;;;;7.07;1.85;;;;;;;;;;5101214;27;20031;-66
2023/09/19 03:22:43;;;;;;;8.13;1.50;;;;;;;;;;5100390;27;20059;-66
2023/09/19 03:25:11;;;;;;;10.68;2.20;;;;;;;;;;5099809;27;20893;-67
2023/09/19 03:27:38;;;;;;;8.40;1.65;;;;;;;;;;5100710;27;20111;-67
2023/09/19 03:30:13;;;;;;;7.32;1.80;;;;;;;;;;5100707;27;20023;-66
2023/09/19 03:32:46;;;;;;;9.73;2.22;;;;;;;;;;5100138;27;20042;-66
2023/09/19 03:35:14;;;;;;;7.88;1.88;;;;;;;;;;5101288;27;20061;-66
2023/09/19 03:37:41;;;;;;;10.32;1.52;;;;;;;;;;5101527;27;20042;-66
2023/09/19 03:40:07;;;;;;;7.72;2.30;;;;;;;;;;5099802;27;20107;-66
2023/09/19 03:42:36;;;;;;;9.15;2.03;;;;;;;;;;5100102;27;20212;-67
2023/09/19 03:45:05;;;;;;;12.35;2.25;;;;;;;;;;5100187;27;20147;-66
2023/09/19 03:47:31;;;;;;;7.50;1.77;;;;;;;;;;5100352;27;20051;-66
2023/09/19 03:49:57;;;;;;;8.95;2.03;;;;;;;;;;5100966;28;20023;-66
2023/09/19 03:52:24;;;;;;;10.95;2.17;;;;;;;;;;5100629;27;20027;-66
2023/09/19 03:54:51;;;;;;;17.60;3.30;;;;;;;;;;5100275;28;20039;-67
2023/09/19 03:57:20;;;;;;;5.32;1.58;;;;;;;;;;5100508;28;20059;-66
2023/09/19 03:59:47;;;;;;;6.43;1.73;;;;;;;;;;5100548;27;20063;-67
2023/09/19 04:02:22;;;;;;;10.98;1.80;;;;;;;;;;5100879;28;20100;-67
2023/09/19 04:04:48;;;;;;;10.27;1.85;;;;;;;;;;5101377;28;20099;-67
2023/09/19 04:07:14;;;;;;;15.10;2.35;;;;;;;;;;5100727;28;20070;-66
2023/09/19 04:09:40;;;;;;;10.60;2.00;;;;;;;;;;5101379;28;20026;-66
2023/09/19 04:12:11;;;;;;;9.80;1.70;;;;;;;;;;5099583;28;20411;-66
2023/09/19 04:14:37;;;;;;;11.82;2.42;;;;;;;;;;5099983;27;20801;-66
2023/09/19 04:17:05;;;;;;;7.28;1.70;;;;;;;;;;5098611;28;20035;-67
2023/09/19 04:19:31;;;;;;;7.38;1.67;;;;;;;;;;5099604;27;20031;-66
2023/09/19 04:21:57;;;;;;;7.97;1.98;;;;;;;;;;5081294;28;20066;-67
2023/09/19 04:24:23;;;;;;;9.88;2.08;;;;;;;;;;5098742;28;20107;-66
2023/09/19 04:26:49;;;;;;;8.82;1.83;;;;;;;;;;5099351;27;20847;-66
2023/09/19 04:29:15;;;;;;;7.25;1.92;;;;;;;;;;5099976;28;20051;-66
2023/09/19 04:31:44;;;;;;;11.55;1.95;;;;;;;;;;5095949;27;20573;-67
2023/09/19 04:34:10;;;;;;;7.05;2.13;;;;;;;;;;5100181;28;20031;-67
2023/09/19 04:36:39;;;;;;;7.38;1.92;;;;;;;;;;5100301;28;20482;-67
2023/09/19 04:39:05;;;;;;;13.30;2.30;;;;;;;;;;5101480;28;20035;-66
2023/09/19 04:41:31;;;;;;;9.63;1.67;;;;;;;;;;5099593;28;20058;-66
2023/09/19 04:43:58;;;;;;;7.90;1.83;;;;;;;;;;5098910;28;20665;-67
2023/09/19 04:46:24;;;;;;;11.05;2.03;;;;;;;;;;5099880;28;20116;-66
2023/09/19 04:48:50;;;;;;;11.05;2.63;;;;;;;;;;5100050;27;20031;-67
2023/09/19 04:51:18;;;;;;;6.78;1.67;;;;;;;;;;5100933;27;20023;-66
2023/09/19 04:53:44;;;;;;;8.73;2.00;;;;;;;;;;5103999;27;20076;-66
2023/09/19 04:56:10;;;;;;;7.00;1.48;;;;;;;;;;5104039;27;20795;-66
2023/09/19 04:58:36;;;;;;;9.48;1.80;;;;;;;;;;5103261;27;20023;-66
2023/09/19 05:01:03;;;;;;;8.60;2.30;;;;;;;;;;5102927;27;20028;-66
2023/09/19 05:03:29;;;;;;;7.93;2.10;;;;;;;;;;5103287;27;20024;-66
2023/09/19 05:05:55;;;;;;;11.70;2.20;;;;;;;;;;5094156;27;20039;-66
2023/09/19 05:08:22;;;;;;;9.40;2.45;;;;;;;;;;5103635;27;20042;-66
2023/09/19 05:10:48;;;;;;;12.75;2.10;;;;;;;;;;5102388;27;20122;-67
2023/09/19 05:13:15;;;;;;;7.75;1.70;;;;;;;;;;5103799;27;20038;-66
2023/09/19 05:15:41;;;;;;;9.45;1.80;;;;;;;;;;5102370;27;20031;-66
2023/09/19 05:18:07;;;;;;;7.72;1.63;;;;;;;;;;5103470;27;20130;-67
2023/09/19 05:20:36;;;;;;;12.32;2.00;;;;;;;;;;5103270;27;20031;-67
2023/09/19 05:23:02;;;;;;;7.88;2.08;;;;;;;;;;5102103;27;20031;-66
2023/09/19 05:25:32;;;;;;;17.77;2.58;;;;;;;;;;5102539;27;20120;-67
2023/09/19 05:27:58;;;;;;;7.60;2.00;;;;;;;;;;5103231;27;20028;-67
2023/09/19 05:30:27;;;;;;;7.63;1.85;;;;;;;;;;5102143;27;20025;-67
2023/09/19 05:32:53;;;;;;;7.90;1.90;;;;;;;;;;5101793;27;20393;-67
2023/09/19 05:35:21;;;;;;;10.65;2.08;;;;;;;;;;5086461;27;20039;-67
2023/09/19 05:37:48;;;;;;;11.52;2.67;;;;;;;;;;5102718;27;20076;-67
2023/09/19 05:40:15;;;;;;;11.35;2.00;;;;;;;;;;5103134;27;20372;-66
2023/09/19 05:42:43;;;;;;;7.97;2.00;;;;;;;;;;5101594;27;20039;-67
2023/09/19 05:45:13;;;;;;;16.17;2.78;;;;;;;;;;5102523;27;20032;-66
2023/09/19 05:47:43;;;;;;;8.80;2.25;;;;;;;;;;5102583;27;20043;-66
2023/09/19 05:50:09;;;;;;;10.60;1.77;;;;;;;;;;5101341;27;20034;-66
2023/09/19 05:52:39;;;;;;;11.90;2.58;;;;;;;;;;5101488;27;20511;-66
2023/09/19 05:55:07;;;;;;;11.43;1.90;;;;;;;;;;5102299;27;20482;-66
2023/09/19 05:57:33;;;;;;;8.93;2.40;;;;;;;;;;5101504;27;20031;-67
2023/09/19 05:59:59;;;;;;;8.40;2.17;;;;;;;;;;5102303;27;20059;-66
2023/09/19 06:02:29;;;;;;;7.30;1.67;;;;;;;;;;5102198;27;20031;-67
2023/09/19 06:04:55;;;;;;;7.50;1.88;;;;;;;;;;5101282;27;20079;-67
2023/09/19 06:07:25;;;;;;;9.43;2.33;;;;;;;;;;5100564;27;20035;-67
2023/09/19 06:09:53;;;;;;;7.35;1.80;;;;;;;;;;5101471;27;20031;-67
2023/09/19 06:12:19;;;;;;;11.73;2.30;;;;;;;;;;5101035;27;20030;-66
2023/09/19 06:14:46;;;;;;;8.38;2.25;;;;;;;;;;5102064;27;20030;-67
2023/09/19 06:17:12;;;;;;;10.95;2.50;;;;;;;;;;5100947;27;21485;-66
2023/09/19 06:19:38;;;;;;;8.55;1.88;;;;;;;;;;5101636;27;20094;-66
2023/09/19 06:22:04;;;;;;;11.90;2.05;;;;;;;;;;5102417;27;20416;-66
2023/09/19 06:24:30;;;;;;;11.32;2.60;;;;;;;;;;5100312;27;20109;-67
2023/09/19 06:26:57;;;;;;;8.93;2.05;;;;;;;;;;5101635;27;21299;-67
2023/09/19 06:29:23;;;;;;;9.15;2.38;;;;;;;;;;5083641;27;20952;-66
2023/09/19 06:31:49;;;;;;;9.13;2.03;;;;;;;;;;5101193;27;20470;-66
2023/09/19 06:34:15;;;;;;;8.88;1.83;;;;;;;;;;5101236;27;20042;-67
2023/09/19 06:36:43;;;;;;;11.43;2.08;;;;;;;;;;5101298;27;20046;-67
2023/09/19 06:39:10;;;;;;;10.98;2.08;;;;;;;;;;5085684;27;20028;-67
2023/09/19 06:41:38;;;;;;;14.25;2.67;;;;;;;;;;5101941;27;20024;-67
2023/09/19 06:44:05;;;;;;;9.95;2.70;;;;;;;;;;5101402;27;20043;-67
2023/09/19 06:46:34;;;;;;;8.07;2.25;;;;;;;;;;5100001;27;20047;-66
2023/09/19 06:49:03;;;;;;;13.95;2.30;;;;;;;;;;5100772;27;20022;-66
2023/09/19 06:51:29;;;;;;;11.93;3.13;;;;;;;;;;5091685;27;20658;-67
2023/09/19 06:53:56;;;;;;;19.90;2.55;;;;;;;;;;5101010;27;20035;-66
2023/09/19 06:56:23;;;;;;;10.98;3.03;;;;;;;;;;5101141;27;20035;-66
2023/09/19 06:58:49;;;;;;;9.70;1.80;;;;;;;;;;5100243;27;20039;-67
2023/09/19 07:01:15;;;;;;;13.45;2.45;;;;;;;;;;5100709;27;20032;-67
2023/09/19 07:03:45;;;;;;;7.43;1.90;;;;;;;;;;5101762;27;20015;-67
2023/09/19 07:06:11;;;;;;;10.93;2.33;;;;;;;;;;5101276;27;20042;-67
2023/09/19 07:08:38;;;;;;;12.23;2.55;;;;;;;;;;5101049;27;20089;-67
2023/09/19 07:11:06;;;;;;;10.85;2.20;;;;;;;;;;5100831;27;20147;-67
2023/09/19 07:13:32;;;;;;;8.88;2.08;;;;;;;;;;5099362;27;20032;-66
2023/09/19 07:15:59;;;;;;;8.80;2.25;;;;;;;;;;5100128;27;20027;-66
2023/09/19 07:18:25;;;;;;;12.95;2.75;;;;;;;;;;5101456;27;20040;-66
2023/09/19 07:20:51;;;;;;;18.10;2.55;;;;;;;;;;5100057;27;20035;-67
2023/09/19 07:23:25;;;;;;;9.63;2.53;;;;;;;;;;5101196;27;20135;-67
2023/09/19 07:25:51;;;;;;;10.07;2.30;;;;;;;;;;5100304;27;20028;-67
2023/09/19 07:28:18;;;;;;;10.25;2.40;;;;;;;;;;5089493;27;20035;-66
2023/09/19 07:30:44;;;;;;;9.85;2.17;;;;;;;;;;5092036;27;20038;-67
2023/09/19 07:33:11;;;;;;;9.82;2.17;;;;;;;;;;5092534;27;20039;-67
2023/09/19 07:35:39;;;;;;;8.60;2.15;;;;;;;;;;5092250;27;20039;-67
2023/09/19 07:38:06;;;;;;;9.05;2.55;;;;;;;;;;5091211;27;20633;-67
2023/09/19 07:40:32;;;;;;;11.40;1.98;;;;;;;;;;5094654;27;21695;-67
2023/09/19 07:43:01;;;;;;;8.93;2.28;;;;;;;;;;5076747;28;20031;-67
2023/09/19 07:45:29;;;;;;;7.80;2.30;;;;;;;;;;5093460;27;20051;-67
2023/09/19 07:47:55;;;;;;;12.07;2.67;;;;;;;;;;5093786;27;20805;-67
2023/09/19 07:50:22;;;;;;;10.15;2.03;;;;;;;;;;5094727;27;20023;-67
2023/09/19 07:52:50;;;;;;;9.25;2.10;;;;;;;;;;5093988;27;20046;-67
2023/09/19 07:55:17;;;;;;;9.07;2.10;;;;;;;;;;5091593;27;20031;-67
2023/09/19 07:57:46;;;;;;;11.73;2.60;;;;;;;;;;5091739;27;20035;-67
2023/09/19 08:00:13;;;;;;;9.77;2.20;;;;;;;;;;5091998;27;20038;-67
2023/09/19 08:02:40;;;;;;;9.80;2.08;;;;;;;;;;5091059;27;20035;-67
2023/09/19 08:05:06;;;;;;;16.13;2.20;;;;;;;;;;5092556;27;20122;-67
2023/09/19 08:07:36;;;;;;;14.93;2.88;;;;;;;;;;5093596;27;20027;-67
2023/09/19 08:10:02;;;;;;;14.32;2.78;;;;;;;;;;5093573;27;20058;-67
2023/09/19 08:12:29;;;;;;;13.40;2.50;;;;;;;;;;5094370;27;20035;-67
2023/09/19 08:14:56;;;;;;;9.50;1.92;;;;;;;;;;5094001;28;20035;-67
2023/09/19 08:17:25;;;;;;;14.05;2.40;;;;;;;;;;5093234;27;20065;-67
2023/09/19 08:19:52;;;;;;;10.35;2.25;;;;;;;;;;5092928;27;20039;-67
2023/09/19 08:22:19;;;;;;;10.00;2.08;;;;;;;;;;5092596;27;20039;-66
2023/09/19 08:24:46;;;;;;;12.70;2.42;;;;;;;;;;5093290;28;20158;-67
2023/09/19 08:27:12;;;;;;;10.73;2.65;;;;;;;;;;5094526;27;20035;-67
2023/09/19 08:29:38;;;;;;;12.55;2.60;;;;;;;;;;5097537;27;20042;-67
2023/09/19 08:32:04;;;;;;;9.05;2.75;;;;;;;;;;5097224;27;20031;-66
2023/09/19 08:34:33;;;;;;;10.15;2.40;;;;;;;;;;5097165;27;20040;-67
2023/09/19 08:36:59;;;;;;;11.50;2.47;;;;;;;;;;5096921;27;20397;-67
2023/09/19 08:39:26;;;;;;;11.32;3.00;;;;;;;;;;5095458;27;20685;-66
2023/09/19 08:42:01;;;;;;;11.95;2.58;;;;;;;;;;5096207;27;21845;-67
2023/09/19 08:44:30;;;;;;;10.95;2.38;;;;;;;;;;5096351;27;20665;-67
2023/09/19 08:47:09;;;;;;;12.02;2.50;;;;;;;;;;5097213;27;20067;-67
2023/09/19 08:49:43;;;;;;;10.60;2.80;;;;;;;;;;5096533;27;20046;-67
2023/09/19 08:52:15;;;;;;;11.80;2.78;;;;;;;;;;5096703;27;20133;-67
2023/09/19 08:54:43;;;;;;;10.27;2.65;;;;;;;;;;5096509;27;20063;-67
2023/09/19 08:57:10;;;;;;;11.27;2.53;;;;;;;;;;5096601;27;20555;-67
2023/09/19 08:59:39;;;;;;;8.90;2.10;;;;;;;;;;5094640;27;20087;-67
2023/09/19 09:02:05;;;;;;;15.00;3.13;;;;;;;;;;5095462;27;20035;-67
2023/09/19 09:04:31;;;;;;;9.75;2.30;;;;;;;;;;5096159;27;20028;-67
2023/09/19 09:06:58;;;;;;;9.88;2.67;;;;;;;;;;5096017;27;20039;-67
2023/09/19 09:09:24;;;;;;;11.80;2.83;;;;;;;;;;5096333;27;20035;-67
2023/09/19 09:11:52;;;;;;;10.73;2.50;;;;;;;;;;5095745;27;20065;-67
2023/09/19 09:14:19;;;;;;;8.93;2.53;;;;;;;;;;5096036;27;20126;-67
2023/09/19 09:16:45;;;;;;;15.77;3.22;;;;;;;;;;5095794;27;20154;-67
2023/09/19 09:19:13;;;;;;;14.95;3.25;;;;;;;;;;5096008;27;20050;-67
2023/09/19 09:21:40;;;;;;;11.75;3.00;;;;;;;;;;5095987;27;20055;-67
2023/09/19 09:24:25;;;;;;;20.40;3.33;;;;;;;;;;5095438;27;20036;-67
2023/09/19 09:26:52;;;;;;;10.98;2.65;;;;;;;;;;5095526;27;20227;-67
2023/09/19 09:29:37;;;;;;;12.18;2.67;;;;;;;;;;5092324;27;20031;-67
2023/09/19 09:32:18;;;;;;;11.55;2.78;;;;;;;;;;5095159;27;20031;-67
2023/09/19 09:34:44;;;;;;;14.63;3.47;;;;;;;;;;5094817;27;20015;-67
2023/09/19 09:37:15;;;;;;;14.43;3.03;;;;;;;;;;5095411;27;21660;-68
2023/09/19 09:39:41;;;;;;;13.52;3.08;;;;;;;;;;5095324;27;20031;-67
2023/09/19 09:42:07;;;;;;;16.45;3.67;;;;;;;;;;5095585;27;21878;-67
2023/09/19 09:44:35;;;;;;;10.95;2.53;;;;;;;;;;5075607;27;20380;-67
2023/09/19 09:49:54;;;;;;;11.10;2.85;;;;;;;;;;5094680;27;20062;-67
2023/09/19 09:52:24;;;;;;;15.65;3.60;;;;;;;;;;5094623;27;20034;-67
2023/09/19 09:55:07;;;;;;;12.27;2.70;;;;;;;;;;5077375;27;20489;-67
2023/09/19 09:57:33;;;;;;;16.30;3.28;;;;;;;;;;5095455;27;20077;-67
2023/09/19 10:00:15;;;;;;;14.38;3.55;;;;;;;;;;5094867;27;20685;-67
2023/09/19 10:02:42;;;;;;;13.02;2.45;;;;;;;;;;5095419;27;20151;-67
2023/09/19 10:07:52;;;;;;;13.70;2.83;;;;;;;;;;5094713;27;20173;-68
2023/09/19 10:13:07;;;;;;;12.60;3.83;;;;;;;;;;5095056;27;20044;-68
2023/09/19 10:15:35;;;;;;;10.02;2.70;;;;;;;;;;5094455;27;21821;-67
2023/09/19 10:18:04;;;;;;;15.70;3.08;;;;;;;;;;5095455;27;20027;-67
2023/09/19 10:20:35;;;;;;;16.23;3.80;;;;;;;;;;5095573;27;20035;-67
2023/09/19 10:23:02;;;;;;;12.15;3.45;;;;;;;;;;5094618;27;20541;-67
2023/09/19 10:25:29;;;;;;;15.75;3.33;;;;;;;;;;5094970;27;20607;-67
2023/09/19 10:27:57;;;;;;;13.48;3.08;;;;;;;;;;5094573;27;20035;-68
2023/09/19 10:30:24;;;;;;;15.27;3.58;;;;;;;;;;5094523;27;20020;-67
2023/09/19 10:32:58;;;;;;;12.95;3.22;;;;;;;;;;5094630;27;20064;-68
2023/09/19 10:35:24;;;;;;;14.27;2.90;;;;;;;;;;5093806;27;20488;-68
2023/09/19 10:37:51;;;;;;;17.05;3.50;;;;;;;;;;5094884;27;20058;-67
2023/09/19 10:40:18;;;;;;;14.27;3.03;;;;;;;;;;5094468;27;20030;-68
2023/09/19 10:42:46;;;;;;;16.63;3.55;;;;;;;;;;5092938;27;20032;-67
2023/09/19 10:45:15;;;;;;;17.33;3.35;;;;;;;;;;5092582;27;20039;-68
2023/09/19 10:47:41;;;;;;;14.65;3.42;;;;;;;;;;5092164;27;20043;-67
2023/09/19 10:50:09;;;;;;;14.73;3.30;;;;;;;;;;5092750;27;20119;-67
2023/09/19 10:52:40;;;;;;;11.88;2.90;;;;;;;;;;5092791;27;20027;-67
2023/09/19 10:55:11;;;;;;;13.32;3.17;;;;;;;;;;5091880;27;20042;-67
2023/09/19 10:57:37;;;;;;;13.02;2.97;;;;;;;;;;5094659;27;20690;-67
2023/09/19 11:00:28;;;;;;;14.02;3.00;;;;;;;;;;5091943;27;20039;-68
2023/09/19 11:03:11;;;;;;;11.63;2.78;;;;;;;;;;5092110;27;20907;-68
2023/09/19 11:05:41;;;;;;;14.23;3.47;;;;;;;;;;5093706;27;20402;-68
2023/09/19 11:08:08;;;;;;;15.63;3.75;;;;;;;;;;5093763;27;20080;-67
2023/09/19 11:10:47;;;;;;;12.18;3.45;;;;;;;;;;5092690;27;20027;-67
2023/09/19 11:13:31;;;;;;;17.35;3.13;;;;;;;;;;5093956;27;20015;-67
2023/09/19 11:15:57;;;;;;;12.02;3.25;;;;;;;;;;5092247;27;20150;-68
2023/09/19 11:18:42;;;;;;;11.77;3.00;;;;;;;;;;5093848;27;20157;-69
2023/09/19 11:21:30;;;;;;;13.45;3.53;;;;;;;;;;5093652;27;20430;-68
2023/09/19 11:24:35;;;;;;;11.88;3.35;;;;;;;;;;5090242;27;20065;-68
2023/09/19 11:27:14;;;;;;;13.00;3.95;;;;;;;;;;5093713;27;20091;-67
2023/09/19 11:29:40;;;;;;;15.93;2.92;;;;;;;;;;5093416;27;20063;-68
2023/09/19 11:32:07;;;;;;;13.10;3.38;;;;;;;;;;5093473;27;20038;-68
2023/09/19 11:34:48;;;;;;;14.95;2.55;;;;;;;;;;5093571;27;21758;-68
2023/09/19 11:37:14;;;;;;;11.15;3.08;;;;;;;;;;5092662;27;20105;-68
2023/09/19 11:39:41;;;;;;;12.82;2.83;;;;;;;;;;5093750;27;20031;-68
2023/09/19 11:42:27;;;;;;;15.55;2.95;;;;;;;;;;5093982;27;20039;-68
2023/09/19 11:44:55;;;;;;;12.45;2.72;;;;;;;;;;5093428;27;20125;-68
2023/09/19 11:47:25;;;;;;;11.15;2.55;;;;;;;;;;5093866;27;20035;-68
2023/09/19 11:49:53;;;;;;;13.63;3.05;;;;;;;;;;5093423;27;20032;-68
2023/09/19 11:52:24;;;;;;;14.15;2.88;;;;;;;;;;5093850;27;20035;-68
2023/09/19 11:54:56;;;;;;;10.43;2.55;;;;;;;;;;5093101;27;20080;-68
2023/09/19 11:57:23;;;;;;;11.23;3.17;;;;;;;;;;5093373;28;20149;-68
2023/09/19 11:59:50;;;;;;;12.10;2.88;;;;;;;;;;5092546;27;20038;-68
2023/09/19 12:02:28;;;;;;;11.35;2.65;;;;;;;;;;5098491;27;21211;-69
2023/09/19 12:04:55;;;;;;;17.23;2.85;;;;;;;;;;5097608;27;20095;-68
2023/09/19 12:07:21;;;;;;;14.02;3.22;;;;;;;;;;5097312;27;20076;-68
2023/09/19 12:09:51;;;;;;;13.25;2.35;;;;;;;;;;5097336;27;20034;-68
2023/09/19 12:12:21;;;;;;;12.60;2.45;;;;;;;;;;5097366;27;21349;-68
2023/09/19 12:14:50;;;;;;;10.68;2.20;;;;;;;;;;5096804;27;20054;-68
2023/09/19 12:17:24;;;;;;;11.73;2.70;;;;;;;;;;5097418;27;20050;-68
2023/09/19 12:19:50;;;;;;;;;;;;;;;;;;5098134;27;20032;-68
2023/09/19 12:22:17;;;;;;;9.63;2.20;;;;;;;;;;5096993;27;19922;-68
2023/09/19 12:24:44;;;;;;;16.05;3.65;;;;;;;;;;5096342;27;20030;-68
2023/09/19 12:27:11;;;;;;;11.38;2.40;;;;;;;;;;5097258;27;20182;-67
2023/09/19 12:29:45;;;;;;;12.23;3.10;;;;;;;;;;5096858;27;20085;-68
2023/09/19 12:32:11;;;;;;;10.70;2.58;;;;;;;;;;5097902;27;20019;-68
2023/09/19 12:34:42;;;;;;;13.70;2.88;;;;;;;;;;5096406;27;20063;-67
2023/09/19 12:37:21;;;;;;;11.98;2.80;;;;;;;;;;5085713;27;20034;-68
2023/09/19 12:39:52;;;;;;;14.43;2.72;;;;;;;;;;5093938;27;20112;-67
2023/09/19 12:42:19;;;;;;;11.05;3.10;;;;;;;;;;5095312;27;20031;-67
2023/09/19 12:44:46;;;;;;;11.85;2.42;;;;;;;;;;5094799;27;20046;-67
2023/09/19 12:47:15;;;;;;;10.02;2.22;;;;;;;;;;5095030;27;20086;-68
2023/09/19 12:50:01;;;;;;;8.32;2.08;;;;;;;;;;5094321;27;20019;-68
2023/09/19 12:52:27;;;;;;;9.68;2.80;;;;;;;;;;5096057;27;20102;-68
2023/09/19 12:54:53;;;;;;;13.23;2.72;;;;;;;;;;5096350;27;20032;-67
2023/09/19 12:57:25;;;;;;;11.52;2.50;;;;;;;;;;5097271;27;21617;-67
2023/09/19 12:59:53;;;;;;;9.10;2.55;;;;;;;;;;5096182;27;20148;-68
2023/09/19 13:02:23;;;;;;;9.27;2.28;;;;;;;;;;5096580;27;21498;-68
2023/09/19 13:04:59;;;;;;;10.38;2.63;;;;;;;;;;5096037;27;20478;-68
2023/09/19 13:07:46;;;;;;;12.40;2.30;;;;;;;;;;5095821;27;20451;-68
2023/09/19 13:10:15;;;;;;;7.43;1.65;;;;;;;;;;5096700;27;20058;-68
2023/09/19 13:12:44;;;;;;;10.25;2.15;;;;;;;;;;5095969;27;20026;-68
2023/09/19 13:15:20;;;;;;;9.15;1.80;;;;;;;;;;5096815;27;20035;-67
2023/09/19 13:17:49;;;;;;;8.35;2.35;;;;;;;;;;5097361;27;20031;-67
2023/09/19 13:20:27;;;;;;;9.57;2.72;;;;;;;;;;5096884;27;20084;-68
2023/09/19 13:22:54;;;;;;;12.13;2.05;;;;;;;;;;5095679;27;20142;-68
2023/09/19 13:25:20;;;;;;;9.77;2.05;;;;;;;;;;5097253;27;20036;-68
2023/09/19 13:27:54;;;;;;;9.90;2.00;;;;;;;;;;5096500;27;20016;-68
2023/09/19 13:30:20;;;;;;;9.68;2.17;;;;;;;;;;5095025;27;20030;-68
2023/09/19 13:32:50;;;;;;;8.30;2.28;;;;;;;;;;5086349;27;20039;-68
2023/09/19 13:35:16;;;;;;;9.82;2.00;;;;;;;;;;5098649;27;20023;-68
2023/09/19 13:37:44;;;;;;;8.85;2.53;;;;;;;;;;5097240;27;20040;-68
2023/09/19 13:40:11;;;;;;;7.45;1.75;;;;;;;;;;5097846;27;20078;-68
2023/09/19 13:42:37;;;;;;;10.10;1.95;;;;;;;;;;5097927;27;20030;-69
2023/09/19 13:45:07;;;;;;;8.23;1.45;;;;;;;;;;5098446;27;21508;-68
2023/09/19 13:47:33;;;;;;;6.85;1.35;;;;;;;;;;5097647;27;20048;-68
2023/09/19 13:50:00;;;;;;;11.57;1.60;;;;;;;;;;5097364;27;20031;-68
2023/09/19 13:52:28;;;;;;;7.70;1.60;;;;;;;;;;5097823;27;20039;-68
2023/09/19 13:54:56;;;;;;;6.53;1.70;;;;;;;;;;5096983;27;20397;-68
2023/09/19 13:57:23;;;;;;;9.48;1.45;;;;;;;;;;5097266;27;20019;-68
2023/09/19 13:59:49;;;;;;;8.23;1.88;;;;;;;;;;5097546;27;20034;-68
2023/09/19 14:02:18;;;;;;;11.18;1.90;;;;;;;;;;5096877;27;20155;-68
2023/09/19 14:04:44;;;;;;;7.28;1.70;;;;;;;;;;5096949;27;20171;-68
2023/09/19 14:07:10;;;;;;;7.97;1.95;;;;;;;;;;5096963;27;20454;-67
2023/09/19 14:09:37;;;;;;;8.68;1.40;;;;;;;;;;5097428;27;20039;-68
2023/09/19 14:12:03;;;;;;;6.35;1.40;;;;;;;;;;5095662;27;20031;-68
2023/09/19 14:14:29;;;;;;;8.25;1.70;;;;;;;;;;5096828;27;20036;-68
2023/09/19 14:16:55;;;;;;;4.82;1.08;;;;;;;;;;5092996;27;20483;-68
2023/09/19 14:19:22;;;;;;;6.63;1.17;;;;;;;;;;5100554;27;20091;-68
2023/09/19 14:21:49;;;;;;;8.13;1.75;;;;;;;;;;5100454;27;20050;-68
2023/09/19 14:24:18;;;;;;;7.05;1.55;;;;;;;;;;5099768;27;20020;-68
2023/09/19 14:26:45;;;;;;;6.85;2.13;;;;;;;;;;5100548;27;20046;-68
2023/09/19 14:29:11;;;;;;;11.88;1.75;;;;;;;;;;5100311;27;20038;-68
2023/09/19 14:31:41;;;;;;;5.38;1.73;;;;;;;;;;5101936;27;20056;-68
2023/09/19 14:34:10;;;;;;;6.88;1.70;;;;;;;;;;5101532;27;20073;-68
2023/09/19 14:36:36;;;;;;;10.38;1.55;;;;;;;;;;5101818;27;20038;-68
2023/09/19 14:39:02;;;;;;;9.57;1.98;;;;;;;;;;5101114;27;20763;-68
2023/09/19 14:41:28;;;;;;;9.02;1.67;;;;;;;;;;5102368;27;20032;-68
2023/09/19 14:43:55;;;;;;;6.28;1.67;;;;;;;;;;5092661;27;20085;-68
2023/09/19 14:46:24;;;;;;;6.53;1.60;;;;;;;;;;5098413;27;20040;-68
2023/09/19 14:48:50;;;;;;;11.27;1.75;;;;;;;;;;5101025;27;20034;-68
2023/09/19 14:51:18;;;;;;;8.98;1.65;;;;;;;;;;5100923;27;20030;-68
2023/09/19 14:53:45;;;;;;;9.27;1.65;;;;;;;;;;5101270;27;20205;-68